sensor_id;sensor_type;location;lat;lon;timestamp;temperature;humidity
6355;DHT22;3210;48.708;9.030;2023-04-24T00:00:37;10.30;99.90
6355;DHT22;3210;48.708;9.030;2023-04-24T00:03:06;10.30;99.90
6355;DHT22;3210;48.708;9.030;2023-04-24T00:05:34;10.30;99.90
6355;DHT22;3210;48.708;9.030;2023-04-24T00:08:01;10.40;99.90
6355;DHT22;3210;48.708;9.030;2023-04-24T00:10:28;10.30;99.90
6355;DHT22;3210;48.708;9.030;2023-04-24T00:12:55;10.30;99.90
6355;DHT22;3210;48.708;9.030;2023-04-24T00:15:22;10.40;99.90
6355;DHT22;3210;48.708;9.030;2023-04-24T00:17:48;10.40;99.90
6355;DHT22;3210;48.708;9.030;2023-04-24T00:20:15;10.30;99.90
6355;DHT22;3210;48.708;9.030;2023-04-24T00:22:43;10.30;99.90
6355;DHT22;3210;48.708;9.030;2023-04-24T00:25:10;10.30;99.90
6355;DHT22;3210;48.708;9.030;2023-04-24T00:27:37;10.40;99.90
6355;DHT22;3210;48.708;9.030;2023-04-24T00:30:05;10.40;99.90
6355;DHT22;3210;48.708;9.030;2023-04-24T00:32:32;10.40;99.90
6355;DHT22;3210;48.708;9.030;2023-04-24T00:34:58;10.50;99.90
6355;DHT22;3210;48.708;9.030;2023-04-24T00:37:26;10.50;99.90
6355;DHT22;3210;48.708;9.030;2023-04-24T00:39:54;10.50;99.90
6355;DHT22;3210;48.708;9.030;2023-04-24T00:42:21;10.50;99.90
6355;DHT22;3210;48.708;9.030;2023-04-24T00:44:47;10.60;99.90
6355;DHT22;3210;48.708;9.030;2023-04-24T00:47:15;10.50;99.90
6355;DHT22;3210;48.708;9.030;2023-04-24T00:49:42;10.60;99.90
6355;DHT22;3210;48.708;9.030;2023-04-24T00:52:08;10.50;99.90
6355;DHT22;3210;48.708;9.030;2023-04-24T00:54:36;10.60;99.90
6355;DHT22;3210;48.708;9.030;2023-04-24T00:57:04;10.60;98.50
6355;DHT22;3210;48.708;9.030;2023-04-24T00:59:31;10.60;98.70
6355;DHT22;3210;48.708;9.030;2023-04-24T01:01:58;10.50;97.40
6355;DHT22;3210;48.708;9.030;2023-04-24T01:04:25;10.50;99.90
6355;DHT22;3210;48.708;9.030;2023-04-24T01:06:53;10.50;98.40
6355;DHT22;3210;48.708;9.030;2023-04-24T01:09:21;10.60;97.70
6355;DHT22;3210;48.708;9.030;2023-04-24T01:11:49;10.70;98.60
6355;DHT22;3210;48.708;9.030;2023-04-24T01:14:18;10.60;99.20
6355;DHT22;3210;48.708;9.030;2023-04-24T01:16:44;10.60;97.40
6355;DHT22;3210;48.708;9.030;2023-04-24T01:19:11;10.60;94.60
6355;DHT22;3210;48.708;9.030;2023-04-24T01:21:40;10.60;99.90
6355;DHT22;3210;48.708;9.030;2023-04-24T01:24:09;10.50;99.90
6355;DHT22;3210;48.708;9.030;2023-04-24T01:26:35;10.50;99.90
6355;DHT22;3210;48.708;9.030;2023-04-24T01:29:02;10.40;99.90
6355;DHT22;3210;48.708;9.030;2023-04-24T01:31:29;10.40;99.90
6355;DHT22;3210;48.708;9.030;2023-04-24T01:33:57;10.30;99.90
6355;DHT22;3210;48.708;9.030;2023-04-24T01:36:24;10.40;99.90
6355;DHT22;3210;48.708;9.030;2023-04-24T01:38:52;10.30;99.90
6355;DHT22;3210;48.708;9.030;2023-04-24T01:41:21;10.30;99.90
6355;DHT22;3210;48.708;9.030;2023-04-24T01:43:48;10.30;99.90
6355;DHT22;3210;48.708;9.030;2023-04-24T01:46:15;10.30;99.90
6355;DHT22;3210;48.708;9.030;2023-04-24T01:48:42;10.30;99.90
6355;DHT22;3210;48.708;9.030;2023-04-24T01:51:09;10.40;99.90
6355;DHT22;3210;48.708;9.030;2023-04-24T01:53:36;10.30;99.90
6355;DHT22;3210;48.708;9.030;2023-04-24T01:56:03;10.40;99.90
6355;DHT22;3210;48.708;9.030;2023-04-24T01:58:31;10.40;99.90
6355;DHT22;3210;48.708;9.030;2023-04-24T02:00:58;10.40;99.90
6355;DHT22;3210;48.708;9.030;2023-04-24T02:03:26;10.40;99.90
6355;DHT22;3210;48.708;9.030;2023-04-24T02:05:52;10.40;99.90
6355;DHT22;3210;48.708;9.030;2023-04-24T02:08:19;10.40;99.90
6355;DHT22;3210;48.708;9.030;2023-04-24T02:10:46;10.40;99.90
6355;DHT22;3210;48.708;9.030;2023-04-24T02:13:13;10.30;99.90
6355;DHT22;3210;48.708;9.030;2023-04-24T02:15:41;10.20;99.90
6355;DHT22;3210;48.708;9.030;2023-04-24T02:18:08;10.10;99.90
6355;DHT22;3210;48.708;9.030;2023-04-24T02:20:36;10.20;99.90
6355;DHT22;3210;48.708;9.030;2023-04-24T02:23:03;10.20;99.90
6355;DHT22;3210;48.708;9.030;2023-04-24T02:25:30;10.30;99.90
6355;DHT22;3210;48.708;9.030;2023-04-24T02:27:57;10.20;99.90
6355;DHT22;3210;48.708;9.030;2023-04-24T02:30:24;10.20;99.90
6355;DHT22;3210;48.708;9.030;2023-04-24T02:32:52;10.20;99.90
6355;DHT22;3210;48.708;9.030;2023-04-24T02:35:19;10.20;99.90
6355;DHT22;3210;48.708;9.030;2023-04-24T02:37:45;10.10;99.90
6355;DHT22;3210;48.708;9.030;2023-04-24T02:40:13;10.00;99.90
6355;DHT22;3210;48.708;9.030;2023-04-24T02:42:39;10.00;99.90
6355;DHT22;3210;48.708;9.030;2023-04-24T02:45:07;10.00;99.90
6355;DHT22;3210;48.708;9.030;2023-04-24T02:47:34;10.00;99.90
6355;DHT22;3210;48.708;9.030;2023-04-24T02:50:03;10.00;99.90
6355;DHT22;3210;48.708;9.030;2023-04-24T02:52:30;9.90;99.90
6355;DHT22;3210;48.708;9.030;2023-04-24T02:54:56;9.90;99.90
6355;DHT22;3210;48.708;9.030;2023-04-24T02:57:23;9.90;1.00
6355;DHT22;3210;48.708;9.030;2023-04-24T02:59:50;9.90;1.00
6355;DHT22;3210;48.708;9.030;2023-04-24T03:02:17;9.90;1.00
6355;DHT22;3210;48.708;9.030;2023-04-24T03:04:43;9.90;1.00
6355;DHT22;3210;48.708;9.030;2023-04-24T03:07:11;9.90;1.00
6355;DHT22;3210;48.708;9.030;2023-04-24T03:09:39;10.00;99.90
6355;DHT22;3210;48.708;9.030;2023-04-24T03:12:06;10.10;99.90
6355;DHT22;3210;48.708;9.030;2023-04-24T03:14:33;10.00;99.90
6355;DHT22;3210;48.708;9.030;2023-04-24T03:17:00;9.90;99.90
6355;DHT22;3210;48.708;9.030;2023-04-24T03:19:27;9.80;99.90
6355;DHT22;3210;48.708;9.030;2023-04-24T03:21:53;9.80;99.90
6355;DHT22;3210;48.708;9.030;2023-04-24T03:24:21;9.90;99.90
6355;DHT22;3210;48.708;9.030;2023-04-24T03:26:48;9.80;99.90
6355;DHT22;3210;48.708;9.030;2023-04-24T03:29:15;9.80;99.90
6355;DHT22;3210;48.708;9.030;2023-04-24T03:31:42;9.70;1.00
6355;DHT22;3210;48.708;9.030;2023-04-24T03:34:08;9.70;1.00
6355;DHT22;3210;48.708;9.030;2023-04-24T03:36:35;9.80;1.00
6355;DHT22;3210;48.708;9.030;2023-04-24T03:39:02;9.80;99.90
6355;DHT22;3210;48.708;9.030;2023-04-24T03:41:30;9.80;99.90
6355;DHT22;3210;48.708;9.030;2023-04-24T03:43:57;9.80;99.90
6355;DHT22;3210;48.708;9.030;2023-04-24T03:46:24;9.80;99.90
6355;DHT22;3210;48.708;9.030;2023-04-24T03:48:51;9.60;99.90
6355;DHT22;3210;48.708;9.030;2023-04-24T03:51:18;9.60;99.90
6355;DHT22;3210;48.708;9.030;2023-04-24T03:53:44;9.40;99.90
6355;DHT22;3210;48.708;9.030;2023-04-24T03:56:11;9.40;1.00
6355;DHT22;3210;48.708;9.030;2023-04-24T03:58:39;9.50;1.00
6355;DHT22;3210;48.708;9.030;2023-04-24T04:01:06;9.50;99.90
6355;DHT22;3210;48.708;9.030;2023-04-24T04:03:33;9.70;99.90
6355;DHT22;3210;48.708;9.030;2023-04-24T04:05:59;9.60;99.90
6355;DHT22;3210;48.708;9.030;2023-04-24T04:08:26;9.60;99.90
6355;DHT22;3210;48.708;9.030;2023-04-24T04:10:53;9.50;1.00
6355;DHT22;3210;48.708;9.030;2023-04-24T04:13:20;9.50;1.00
6355;DHT22;3210;48.708;9.030;2023-04-24T04:15:48;9.70;99.90
6355;DHT22;3210;48.708;9.030;2023-04-24T04:18:15;9.60;99.90
6355;DHT22;3210;48.708;9.030;2023-04-24T04:20:42;9.70;99.90
6355;DHT22;3210;48.708;9.030;2023-04-24T04:23:08;9.60;99.90
6355;DHT22;3210;48.708;9.030;2023-04-24T04:25:35;9.70;99.90
6355;DHT22;3210;48.708;9.030;2023-04-24T04:28:02;9.60;99.90
6355;DHT22;3210;48.708;9.030;2023-04-24T04:30:29;9.10;99.90
6355;DHT22;3210;48.708;9.030;2023-04-24T04:32:59;8.90;99.90
6355;DHT22;3210;48.708;9.030;2023-04-24T04:35:25;8.90;99.90
6355;DHT22;3210;48.708;9.030;2023-04-24T04:37:52;8.70;1.00
6355;DHT22;3210;48.708;9.030;2023-04-24T04:40:19;8.70;1.00
6355;DHT22;3210;48.708;9.030;2023-04-24T04:42:46;8.60;1.00
6355;DHT22;3210;48.708;9.030;2023-04-24T04:45:13;8.60;1.00
6355;DHT22;3210;48.708;9.030;2023-04-24T04:47:42;8.60;99.90
6355;DHT22;3210;48.708;9.030;2023-04-24T04:50:11;8.50;99.90
6355;DHT22;3210;48.708;9.030;2023-04-24T04:52:38;8.50;1.00
6355;DHT22;3210;48.708;9.030;2023-04-24T04:55:05;8.50;1.00
6355;DHT22;3210;48.708;9.030;2023-04-24T04:57:33;8.50;1.00
6355;DHT22;3210;48.708;9.030;2023-04-24T05:00:00;8.50;1.00
6355;DHT22;3210;48.708;9.030;2023-04-24T05:02:26;8.40;1.00
6355;DHT22;3210;48.708;9.030;2023-04-24T05:04:53;8.50;1.00
6355;DHT22;3210;48.708;9.030;2023-04-24T05:07:21;8.50;1.00
6355;DHT22;3210;48.708;9.030;2023-04-24T05:09:48;8.50;1.00
6355;DHT22;3210;48.708;9.030;2023-04-24T05:12:16;8.50;1.00
6355;DHT22;3210;48.708;9.030;2023-04-24T05:14:43;8.50;1.00
6355;DHT22;3210;48.708;9.030;2023-04-24T05:17:10;8.50;1.00
6355;DHT22;3210;48.708;9.030;2023-04-24T05:19:37;8.40;1.00
6355;DHT22;3210;48.708;9.030;2023-04-24T05:22:04;8.60;1.00
6355;DHT22;3210;48.708;9.030;2023-04-24T05:24:34;8.60;99.90
6355;DHT22;3210;48.708;9.030;2023-04-24T05:27:00;8.70;99.90
6355;DHT22;3210;48.708;9.030;2023-04-24T05:29:27;8.70;99.90
6355;DHT22;3210;48.708;9.030;2023-04-24T05:31:56;8.60;99.90
6355;DHT22;3210;48.708;9.030;2023-04-24T05:34:23;8.80;99.90
6355;DHT22;3210;48.708;9.030;2023-04-24T05:36:50;8.80;99.90
6355;DHT22;3210;48.708;9.030;2023-04-24T05:39:17;8.80;99.90
6355;DHT22;3210;48.708;9.030;2023-04-24T05:41:46;8.70;99.90
6355;DHT22;3210;48.708;9.030;2023-04-24T05:44:13;8.80;99.90
6355;DHT22;3210;48.708;9.030;2023-04-24T05:46:39;8.80;99.90
6355;DHT22;3210;48.708;9.030;2023-04-24T06:55:03;10.80;60.30
6355;DHT22;3210;48.708;9.030;2023-04-24T06:57:30;11.00;69.80
6355;DHT22;3210;48.708;9.030;2023-04-24T06:59:57;11.10;54.80
6355;DHT22;3210;48.708;9.030;2023-04-24T07:02:25;11.10;56.90
6355;DHT22;3210;48.708;9.030;2023-04-24T07:04:51;11.10;42.80
6355;DHT22;3210;48.708;9.030;2023-04-24T07:07:18;11.10;75.30
6355;DHT22;3210;48.708;9.030;2023-04-24T07:09:45;11.20;39.40
6355;DHT22;3210;48.708;9.030;2023-04-24T07:12:13;10.90;35.00
6355;DHT22;3210;48.708;9.030;2023-04-24T07:14:40;10.80;42.10
6355;DHT22;3210;48.708;9.030;2023-04-24T07:17:07;10.50;34.30
6355;DHT22;3210;48.708;9.030;2023-04-24T07:19:34;10.40;35.20
6355;DHT22;3210;48.708;9.030;2023-04-24T07:22:00;10.30;39.40
6355;DHT22;3210;48.708;9.030;2023-04-24T07:24:28;10.40;50.50
6355;DHT22;3210;48.708;9.030;2023-04-24T07:26:57;10.50;47.90
6355;DHT22;3210;48.708;9.030;2023-04-24T07:29:25;10.50;29.90
6355;DHT22;3210;48.708;9.030;2023-04-24T07:31:52;10.60;34.60
6355;DHT22;3210;48.708;9.030;2023-04-24T07:34:19;11.00;47.90
6355;DHT22;3210;48.708;9.030;2023-04-24T07:36:46;11.10;30.10
6355;DHT22;3210;48.708;9.030;2023-04-24T07:39:13;11.40;27.80
6355;DHT22;3210;48.708;9.030;2023-04-24T07:41:39;11.60;21.90
6355;DHT22;3210;48.708;9.030;2023-04-24T07:44:06;11.80;1.00
6355;DHT22;3210;48.708;9.030;2023-04-24T07:46:34;11.80;1.00
6355;DHT22;3210;48.708;9.030;2023-04-24T07:49:01;11.60;1.00
6355;DHT22;3210;48.708;9.030;2023-04-24T07:51:28;11.60;1.00
6355;DHT22;3210;48.708;9.030;2023-04-24T07:53:55;11.80;1.00
6355;DHT22;3210;48.708;9.030;2023-04-24T07:56:22;11.80;1.00
6355;DHT22;3210;48.708;9.030;2023-04-24T07:58:49;11.80;1.00
6355;DHT22;3210;48.708;9.030;2023-04-24T08:01:16;11.50;1.00
6355;DHT22;3210;48.708;9.030;2023-04-24T08:03:44;11.40;1.00
6355;DHT22;3210;48.708;9.030;2023-04-24T08:06:11;11.00;1.00
6355;DHT22;3210;48.708;9.030;2023-04-24T08:08:38;11.00;1.00
6355;DHT22;3210;48.708;9.030;2023-04-24T08:11:04;10.90;1.00
6355;DHT22;3210;48.708;9.030;2023-04-24T08:13:31;10.70;1.00
6355;DHT22;3210;48.708;9.030;2023-04-24T08:15:58;10.50;1.00
6355;DHT22;3210;48.708;9.030;2023-04-24T08:18:25;10.50;1.00
6355;DHT22;3210;48.708;9.030;2023-04-24T08:20:53;10.60;1.00
6355;DHT22;3210;48.708;9.030;2023-04-24T08:23:21;10.80;1.00
6355;DHT22;3210;48.708;9.030;2023-04-24T08:25:48;10.90;1.00
6355;DHT22;3210;48.708;9.030;2023-04-24T08:28:15;11.20;1.00
6355;DHT22;3210;48.708;9.030;2023-04-24T08:30:45;11.60;1.00
6355;DHT22;3210;48.708;9.030;2023-04-24T08:33:12;11.90;1.00
6355;DHT22;3210;48.708;9.030;2023-04-24T08:35:39;11.80;1.00
6355;DHT22;3210;48.708;9.030;2023-04-24T08:38:07;11.80;1.00
6355;DHT22;3210;48.708;9.030;2023-04-24T08:40:35;11.80;1.00
6355;DHT22;3210;48.708;9.030;2023-04-24T08:43:02;11.70;1.00
6355;DHT22;3210;48.708;9.030;2023-04-24T08:45:29;11.70;1.00
6355;DHT22;3210;48.708;9.030;2023-04-24T08:47:57;11.50;1.00
6355;DHT22;3210;48.708;9.030;2023-04-24T08:50:24;11.40;1.00
6355;DHT22;3210;48.708;9.030;2023-04-24T08:52:52;11.50;1.00
6355;DHT22;3210;48.708;9.030;2023-04-24T08:55:20;11.40;1.00
6355;DHT22;3210;48.708;9.030;2023-04-24T08:57:51;11.30;1.00
6355;DHT22;3210;48.708;9.030;2023-04-24T09:00:19;11.40;1.00
6355;DHT22;3210;48.708;9.030;2023-04-24T09:02:48;11.60;1.00
6355;DHT22;3210;48.708;9.030;2023-04-24T09:05:16;11.60;1.00
6355;DHT22;3210;48.708;9.030;2023-04-24T09:07:45;11.60;1.00
6355;DHT22;3210;48.708;9.030;2023-04-24T09:10:13;11.50;1.00
6355;DHT22;3210;48.708;9.030;2023-04-24T09:12:42;11.30;1.00
6355;DHT22;3210;48.708;9.030;2023-04-24T09:15:11;11.00;1.00
6355;DHT22;3210;48.708;9.030;2023-04-24T09:17:38;10.90;1.00
6355;DHT22;3210;48.708;9.030;2023-04-24T09:20:06;10.80;1.00
6355;DHT22;3210;48.708;9.030;2023-04-24T09:22:33;10.60;1.00
6355;DHT22;3210;48.708;9.030;2023-04-24T09:25:02;10.60;1.00
6355;DHT22;3210;48.708;9.030;2023-04-24T09:27:31;11.10;1.00
6355;DHT22;3210;48.708;9.030;2023-04-24T09:29:59;11.60;1.00
6355;DHT22;3210;48.708;9.030;2023-04-24T09:32:26;11.70;1.00
6355;DHT22;3210;48.708;9.030;2023-04-24T09:35:09;12.00;1.00
6355;DHT22;3210;48.708;9.030;2023-04-24T09:37:37;12.40;1.00
6355;DHT22;3210;48.708;9.030;2023-04-24T09:40:13;12.30;1.00
6355;DHT22;3210;48.708;9.030;2023-04-24T09:42:43;12.30;1.00
6355;DHT22;3210;48.708;9.030;2023-04-24T09:45:12;12.40;1.00
6355;DHT22;3210;48.708;9.030;2023-04-24T09:47:39;12.20;1.00
6355;DHT22;3210;48.708;9.030;2023-04-24T09:50:10;12.10;1.00
6355;DHT22;3210;48.708;9.030;2023-04-24T09:52:40;12.10;1.00
6355;DHT22;3210;48.708;9.030;2023-04-24T09:55:11;11.90;1.00
6355;DHT22;3210;48.708;9.030;2023-04-24T09:57:50;11.70;1.00
6355;DHT22;3210;48.708;9.030;2023-04-24T10:00:24;11.50;1.00
6355;DHT22;3210;48.708;9.030;2023-04-24T10:02:56;11.70;1.00
6355;DHT22;3210;48.708;9.030;2023-04-24T10:05:26;11.90;1.00
6355;DHT22;3210;48.708;9.030;2023-04-24T10:07:56;12.40;1.00
6355;DHT22;3210;48.708;9.030;2023-04-24T10:10:23;12.80;1.00
6355;DHT22;3210;48.708;9.030;2023-04-24T10:12:51;12.90;1.00
6355;DHT22;3210;48.708;9.030;2023-04-24T10:15:18;12.90;1.00
6355;DHT22;3210;48.708;9.030;2023-04-24T10:17:48;13.00;1.00
6355;DHT22;3210;48.708;9.030;2023-04-24T10:20:22;13.30;1.00
6355;DHT22;3210;48.708;9.030;2023-04-24T10:22:50;13.00;1.00
6355;DHT22;3210;48.708;9.030;2023-04-24T10:25:19;12.80;1.00
6355;DHT22;3210;48.708;9.030;2023-04-24T10:27:47;12.80;1.00
6355;DHT22;3210;48.708;9.030;2023-04-24T10:30:15;12.60;1.00
6355;DHT22;3210;48.708;9.030;2023-04-24T10:32:42;12.60;1.00
6355;DHT22;3210;48.708;9.030;2023-04-24T10:35:11;12.30;1.00
6355;DHT22;3210;48.708;9.030;2023-04-24T10:37:40;12.30;1.00
6355;DHT22;3210;48.708;9.030;2023-04-24T10:40:09;12.60;1.00
6355;DHT22;3210;48.708;9.030;2023-04-24T10:42:40;12.70;1.00
6355;DHT22;3210;48.708;9.030;2023-04-24T10:45:16;12.60;1.00
6355;DHT22;3210;48.708;9.030;2023-04-24T10:47:43;12.60;1.00
6355;DHT22;3210;48.708;9.030;2023-04-24T10:50:18;12.50;1.00
6355;DHT22;3210;48.708;9.030;2023-04-24T10:52:46;12.40;1.00
6355;DHT22;3210;48.708;9.030;2023-04-24T10:55:14;12.50;1.00
6355;DHT22;3210;48.708;9.030;2023-04-24T10:58:01;12.30;1.00
6355;DHT22;3210;48.708;9.030;2023-04-24T11:00:29;12.20;1.00
6355;DHT22;3210;48.708;9.030;2023-04-24T11:02:56;12.30;1.00
6355;DHT22;3210;48.708;9.030;2023-04-24T11:05:52;12.20;1.00
6355;DHT22;3210;48.708;9.030;2023-04-24T11:08:27;11.90;1.00
6355;DHT22;3210;48.708;9.030;2023-04-24T11:11:02;11.50;1.00
6355;DHT22;3210;48.708;9.030;2023-04-24T11:14:02;11.50;1.00
6355;DHT22;3210;48.708;9.030;2023-04-24T11:16:30;11.60;1.00
6355;DHT22;3210;48.708;9.030;2023-04-24T11:19:03;11.70;1.00
6355;DHT22;3210;48.708;9.030;2023-04-24T11:21:40;11.70;1.00
6355;DHT22;3210;48.708;9.030;2023-04-24T11:24:30;11.80;1.00
6355;DHT22;3210;48.708;9.030;2023-04-24T11:26:59;12.20;1.00
6355;DHT22;3210;48.708;9.030;2023-04-24T11:29:43;12.40;1.00
6355;DHT22;3210;48.708;9.030;2023-04-24T11:32:18;12.30;1.00
6355;DHT22;3210;48.708;9.030;2023-04-24T11:34:47;11.90;1.00
6355;DHT22;3210;48.708;9.030;2023-04-24T11:37:15;11.50;1.00
6355;DHT22;3210;48.708;9.030;2023-04-24T11:39:42;11.40;1.00
6355;DHT22;3210;48.708;9.030;2023-04-24T11:42:09;11.30;1.00
6355;DHT22;3210;48.708;9.030;2023-04-24T11:44:36;11.40;1.00
6355;DHT22;3210;48.708;9.030;2023-04-24T11:47:04;11.30;1.00
6355;DHT22;3210;48.708;9.030;2023-04-24T11:49:30;11.40;1.00
6355;DHT22;3210;48.708;9.030;2023-04-24T11:51:57;11.70;1.00
6355;DHT22;3210;48.708;9.030;2023-04-24T11:54:27;11.90;1.00
6355;DHT22;3210;48.708;9.030;2023-04-24T11:56:55;12.30;1.00
6355;DHT22;3210;48.708;9.030;2023-04-24T11:59:22;12.70;1.00
6355;DHT22;3210;48.708;9.030;2023-04-24T12:01:49;13.00;1.00
6355;DHT22;3210;48.708;9.030;2023-04-24T12:04:17;13.00;1.00
6355;DHT22;3210;48.708;9.030;2023-04-24T12:06:59;12.50;1.00
6355;DHT22;3210;48.708;9.030;2023-04-24T12:09:28;12.20;1.00
6355;DHT22;3210;48.708;9.030;2023-04-24T12:11:56;11.70;1.00
6355;DHT22;3210;48.708;9.030;2023-04-24T12:14:23;11.50;1.00
6355;DHT22;3210;48.708;9.030;2023-04-24T12:16:50;11.40;1.00
6355;DHT22;3210;48.708;9.030;2023-04-24T12:19:20;11.60;1.00
6355;DHT22;3210;48.708;9.030;2023-04-24T12:21:59;11.70;1.00
6355;DHT22;3210;48.708;9.030;2023-04-24T12:24:27;12.00;1.00
6355;DHT22;3210;48.708;9.030;2023-04-24T12:26:54;12.20;1.00
6355;DHT22;3210;48.708;9.030;2023-04-24T12:29:22;12.30;1.00
6355;DHT22;3210;48.708;9.030;2023-04-24T12:31:49;12.20;1.00
6355;DHT22;3210;48.708;9.030;2023-04-24T12:34:20;12.00;1.00
6355;DHT22;3210;48.708;9.030;2023-04-24T12:36:47;11.80;1.00
6355;DHT22;3210;48.708;9.030;2023-04-24T12:39:15;11.80;1.00
6355;DHT22;3210;48.708;9.030;2023-04-24T12:41:54;11.60;1.00
6355;DHT22;3210;48.708;9.030;2023-04-24T12:44:29;11.40;1.00
6355;DHT22;3210;48.708;9.030;2023-04-24T12:46:57;11.30;1.00
6355;DHT22;3210;48.708;9.030;2023-04-24T12:49:24;11.20;1.00
6355;DHT22;3210;48.708;9.030;2023-04-24T12:51:51;11.00;1.00
6355;DHT22;3210;48.708;9.030;2023-04-24T12:54:18;11.10;1.00
6355;DHT22;3210;48.708;9.030;2023-04-24T12:56:44;10.90;1.00
6355;DHT22;3210;48.708;9.030;2023-04-24T12:59:13;10.90;1.00
6355;DHT22;3210;48.708;9.030;2023-04-24T13:04:06;10.80;1.00
6355;DHT22;3210;48.708;9.030;2023-04-24T13:06:33;10.60;1.00
6355;DHT22;3210;48.708;9.030;2023-04-24T13:09:00;10.50;1.00
6355;DHT22;3210;48.708;9.030;2023-04-24T13:11:26;10.50;1.00
6355;DHT22;3210;48.708;9.030;2023-04-24T13:13:54;10.60;1.00
6355;DHT22;3210;48.708;9.030;2023-04-24T13:16:22;10.80;1.00
6355;DHT22;3210;48.708;9.030;2023-04-24T13:18:49;11.00;1.00
6355;DHT22;3210;48.708;9.030;2023-04-24T13:21:16;11.30;1.00
6355;DHT22;3210;48.708;9.030;2023-04-24T13:23:42;11.40;1.00
6355;DHT22;3210;48.708;9.030;2023-04-24T13:26:09;11.50;1.00
6355;DHT22;3210;48.708;9.030;2023-04-24T13:28:36;11.40;1.00
6355;DHT22;3210;48.708;9.030;2023-04-24T13:31:03;11.20;1.00
6355;DHT22;3210;48.708;9.030;2023-04-24T13:33:33;11.10;1.00
6355;DHT22;3210;48.708;9.030;2023-04-24T13:35:59;11.00;1.00
6355;DHT22;3210;48.708;9.030;2023-04-24T13:38:26;11.00;1.00
6355;DHT22;3210;48.708;9.030;2023-04-24T13:40:53;10.80;1.00
6355;DHT22;3210;48.708;9.030;2023-04-24T13:43:20;10.80;1.00
6355;DHT22;3210;48.708;9.030;2023-04-24T13:45:47;10.70;1.00
6355;DHT22;3210;48.708;9.030;2023-04-24T13:48:14;10.70;1.00
6355;DHT22;3210;48.708;9.030;2023-04-24T13:50:42;10.80;1.00
6355;DHT22;3210;48.708;9.030;2023-04-24T13:53:10;11.00;1.00
6355;DHT22;3210;48.708;9.030;2023-04-24T13:55:36;11.20;1.00
6355;DHT22;3210;48.708;9.030;2023-04-24T13:58:04;11.40;1.00
6355;DHT22;3210;48.708;9.030;2023-04-24T14:00:32;11.40;1.00
6355;DHT22;3210;48.708;9.030;2023-04-24T14:02:58;11.50;1.00
6355;DHT22;3210;48.708;9.030;2023-04-24T14:05:26;11.30;1.00
6355;DHT22;3210;48.708;9.030;2023-04-24T14:07:54;10.90;1.00
6355;DHT22;3210;48.708;9.030;2023-04-24T14:10:21;10.80;1.00
6355;DHT22;3210;48.708;9.030;2023-04-24T14:12:48;10.50;1.00
6355;DHT22;3210;48.708;9.030;2023-04-24T14:15:14;10.30;1.00
6355;DHT22;3210;48.708;9.030;2023-04-24T14:17:42;10.00;1.00
6355;DHT22;3210;48.708;9.030;2023-04-24T14:20:09;9.70;1.00
6355;DHT22;3210;48.708;9.030;2023-04-24T14:22:36;9.70;1.00
6355;DHT22;3210;48.708;9.030;2023-04-24T14:25:05;9.70;1.00
6355;DHT22;3210;48.708;9.030;2023-04-24T14:27:32;9.90;1.00
6355;DHT22;3210;48.708;9.030;2023-04-24T14:30:00;10.20;12.50
6355;DHT22;3210;48.708;9.030;2023-04-24T14:32:26;10.60;1.00
6355;DHT22;3210;48.708;9.030;2023-04-24T14:34:53;10.70;1.00
6355;DHT22;3210;48.708;9.030;2023-04-24T14:37:20;10.80;1.00
6355;DHT22;3210;48.708;9.030;2023-04-24T14:39:47;10.90;1.00
6355;DHT22;3210;48.708;9.030;2023-04-24T14:42:15;11.10;1.00
6355;DHT22;3210;48.708;9.030;2023-04-24T14:44:43;10.90;1.00
6355;DHT22;3210;48.708;9.030;2023-04-24T14:47:10;10.90;1.00
6355;DHT22;3210;48.708;9.030;2023-04-24T14:49:36;11.10;1.00
6355;DHT22;3210;48.708;9.030;2023-04-24T14:52:03;11.20;1.00
6355;DHT22;3210;48.708;9.030;2023-04-24T14:54:30;11.40;1.00
6355;DHT22;3210;48.708;9.030;2023-04-24T14:56:57;11.40;1.00
6355;DHT22;3210;48.708;9.030;2023-04-24T14:59:25;11.30;1.00
6355;DHT22;3210;48.708;9.030;2023-04-24T15:01:52;11.30;1.00
6355;DHT22;3210;48.708;9.030;2023-04-24T15:04:23;11.10;1.00
6355;DHT22;3210;48.708;9.030;2023-04-24T15:06:50;11.10;1.00
6355;DHT22;3210;48.708;9.030;2023-04-24T15:09:19;11.00;1.00
6355;DHT22;3210;48.708;9.030;2023-04-24T15:11:45;10.90;1.00
6355;DHT22;3210;48.708;9.030;2023-04-24T15:14:12;10.80;1.00
6355;DHT22;3210;48.708;9.030;2023-04-24T15:16:40;10.70;1.00
6355;DHT22;3210;48.708;9.030;2023-04-24T15:19:07;10.60;1.00
6355;DHT22;3210;48.708;9.030;2023-04-24T15:21:35;10.70;1.00
6355;DHT22;3210;48.708;9.030;2023-04-24T15:24:02;10.70;1.00
6355;DHT22;3210;48.708;9.030;2023-04-24T15:26:29;10.60;1.00
6355;DHT22;3210;48.708;9.030;2023-04-24T15:28:56;10.50;1.00
6355;DHT22;3210;48.708;9.030;2023-04-24T15:31:23;10.50;1.00
6355;DHT22;3210;48.708;9.030;2023-04-24T15:33:51;10.50;1.00
6355;DHT22;3210;48.708;9.030;2023-04-24T15:36:18;10.50;1.00
6355;DHT22;3210;48.708;9.030;2023-04-24T15:38:46;10.40;1.00
6355;DHT22;3210;48.708;9.030;2023-04-24T15:41:14;10.40;1.00
6355;DHT22;3210;48.708;9.030;2023-04-24T15:43:40;10.40;1.00
6355;DHT22;3210;48.708;9.030;2023-04-24T15:46:09;10.50;1.00
6355;DHT22;3210;48.708;9.030;2023-04-24T15:48:36;10.40;1.00
6355;DHT22;3210;48.708;9.030;2023-04-24T15:51:05;10.10;1.00
6355;DHT22;3210;48.708;9.030;2023-04-24T15:53:32;10.10;1.00
6355;DHT22;3210;48.708;9.030;2023-04-24T15:55:59;10.30;1.00
6355;DHT22;3210;48.708;9.030;2023-04-24T15:58:26;10.50;1.00
6355;DHT22;3210;48.708;9.030;2023-04-24T16:00:53;10.80;1.00
6355;DHT22;3210;48.708;9.030;2023-04-24T16:03:20;11.20;1.00
6355;DHT22;3210;48.708;9.030;2023-04-24T16:05:47;11.40;1.00
6355;DHT22;3210;48.708;9.030;2023-04-24T16:08:15;11.50;1.00
6355;DHT22;3210;48.708;9.030;2023-04-24T16:10:41;11.50;1.00
6355;DHT22;3210;48.708;9.030;2023-04-24T16:13:08;11.70;1.00
6355;DHT22;3210;48.708;9.030;2023-04-24T16:15:35;11.60;1.00
6355;DHT22;3210;48.708;9.030;2023-04-24T16:18:02;11.60;1.00
6355;DHT22;3210;48.708;9.030;2023-04-24T16:20:29;11.60;1.00
6355;DHT22;3210;48.708;9.030;2023-04-24T16:22:55;11.60;1.00
6355;DHT22;3210;48.708;9.030;2023-04-24T16:25:24;11.40;1.00
6355;DHT22;3210;48.708;9.030;2023-04-24T16:27:50;11.40;1.00
6355;DHT22;3210;48.708;9.030;2023-04-24T16:30:18;11.50;1.00
6355;DHT22;3210;48.708;9.030;2023-04-24T16:32:45;11.50;1.00
6355;DHT22;3210;48.708;9.030;2023-04-24T16:35:12;11.50;1.00
6355;DHT22;3210;48.708;9.030;2023-04-24T16:37:38;11.50;1.00
6355;DHT22;3210;48.708;9.030;2023-04-24T16:40:06;11.40;1.00
6355;DHT22;3210;48.708;9.030;2023-04-24T16:42:36;11.40;1.00
6355;DHT22;3210;48.708;9.030;2023-04-24T16:45:04;11.40;1.00
6355;DHT22;3210;48.708;9.030;2023-04-24T16:47:31;11.20;1.00
6355;DHT22;3210;48.708;9.030;2023-04-24T16:49:58;11.20;1.00
6355;DHT22;3210;48.708;9.030;2023-04-24T16:52:25;11.30;1.00
6355;DHT22;3210;48.708;9.030;2023-04-24T16:54:52;11.40;1.00
6355;DHT22;3210;48.708;9.030;2023-04-24T16:57:18;11.50;1.00
6355;DHT22;3210;48.708;9.030;2023-04-24T16:59:46;11.80;1.00
6355;DHT22;3210;48.708;9.030;2023-04-24T17:02:13;11.90;1.00
6355;DHT22;3210;48.708;9.030;2023-04-24T17:04:40;12.10;1.00
6355;DHT22;3210;48.708;9.030;2023-04-24T17:07:07;12.20;1.00
6355;DHT22;3210;48.708;9.030;2023-04-24T17:09:33;12.40;1.00
6355;DHT22;3210;48.708;9.030;2023-04-24T17:12:00;12.40;1.00
6355;DHT22;3210;48.708;9.030;2023-04-24T17:14:27;12.30;1.00
6355;DHT22;3210;48.708;9.030;2023-04-24T17:16:55;12.10;1.00
6355;DHT22;3210;48.708;9.030;2023-04-24T17:19:22;11.70;1.00
6355;DHT22;3210;48.708;9.030;2023-04-24T17:21:50;11.50;1.00
6355;DHT22;3210;48.708;9.030;2023-04-24T17:24:17;11.30;1.00
6355;DHT22;3210;48.708;9.030;2023-04-24T17:26:43;11.20;1.00